sensor_id;sensor_type;location;lat;lon;timestamp;pressure;altitude;pressure_sealevel;temperature;humidity
76762;BME280;65705;51.032;13.790;2023-02-01T00:01:57;100160.94;;;5.93;68.54
76762;BME280;65705;51.032;13.790;2023-02-01T00:04:23;100159.84;;;5.95;68.22
76762;BME280;65705;51.032;13.790;2023-02-01T00:06:48;100156.66;;;5.92;67.78
76762;BME280;65705;51.032;13.790;2023-02-01T00:09:14;100167.09;;;5.92;68.15
76762;BME280;65705;51.032;13.790;2023-02-01T00:11:40;100169.38;;;5.85;68.27
76762;BME280;65705;51.032;13.790;2023-02-01T00:14:06;100172.00;;;5.85;68.20
76762;BME280;65705;51.032;13.790;2023-02-01T00:16:33;100176.44;;;5.94;67.95
76762;BME280;65705;51.032;13.790;2023-02-01T00:19:09;100180.94;;;5.92;67.75
76762;BME280;65705;51.032;13.790;2023-02-01T00:21:35;100161.50;;;5.96;67.63
76762;BME280;65705;51.032;13.790;2023-02-01T00:24:02;100181.50;;;5.96;67.38
76762;BME280;65705;51.032;13.790;2023-02-01T00:26:34;100172.06;;;5.95;67.62
76762;BME280;65705;51.032;13.790;2023-02-01T00:29:03;100183.84;;;5.99;67.67
76762;BME280;65705;51.032;13.790;2023-02-01T00:31:29;100181.50;;;5.96;67.79
76762;BME280;65705;51.032;13.790;2023-02-01T00:33:55;100183.75;;;6.00;67.81
76762;BME280;65705;51.032;13.790;2023-02-01T00:36:21;100182.47;;;5.95;67.70
76762;BME280;65705;51.032;13.790;2023-02-01T00:38:47;100193.59;;;5.97;67.89
76762;BME280;65705;51.032;13.790;2023-02-01T00:41:18;100191.56;;;6.00;67.72
76762;BME280;65705;51.032;13.790;2023-02-01T00:43:44;100184.31;;;6.04;67.64
76762;BME280;65705;51.032;13.790;2023-02-01T00:46:11;100181.50;;;5.96;67.99
76762;BME280;65705;51.032;13.790;2023-02-01T00:48:37;100188.81;;;6.02;67.99
76762;BME280;65705;51.032;13.790;2023-02-01T00:51:09;100184.06;;;6.07;67.72
76762;BME280;65705;51.032;13.790;2023-02-01T00:53:35;100178.78;;;5.97;68.00
76762;BME280;65705;51.032;13.790;2023-02-01T00:56:01;100190.03;;;5.98;67.68
76762;BME280;65705;51.032;13.790;2023-02-01T00:58:28;100176.16;;;5.97;67.71
76762;BME280;65705;51.032;13.790;2023-02-01T01:01:02;100187.28;;;5.99;67.18
76762;BME280;65705;51.032;13.790;2023-02-01T01:03:29;100191.56;;;6.00;67.12
76762;BME280;65705;51.032;13.790;2023-02-01T01:05:59;100185.88;;;5.95;67.13
76762;BME280;65705;51.032;13.790;2023-02-01T01:08:26;100203.88;;;5.98;67.07
76762;BME280;65705;51.032;13.790;2023-02-01T01:10:52;100199.75;;;5.96;66.89
76762;BME280;65705;51.032;13.790;2023-02-01T01:13:17;100193.84;;;5.94;66.57
76762;BME280;65705;51.032;13.790;2023-02-01T01:15:43;100189.16;;;5.88;67.08
76762;BME280;65705;51.032;13.790;2023-02-01T01:18:09;100189.16;;;5.88;66.92
76762;BME280;65705;51.032;13.790;2023-02-01T01:20:36;100177.56;;;5.81;67.13
76762;BME280;65705;51.032;13.790;2023-02-01T01:23:03;100170.34;;;5.84;66.69
76762;BME280;65705;51.032;13.790;2023-02-01T01:25:29;100182.00;;;5.90;66.30
76762;BME280;65705;51.032;13.790;2023-02-01T01:27:55;100183.69;;;5.91;66.52
76762;BME280;65705;51.032;13.790;2023-02-01T01:30:21;100179.41;;;5.90;66.22
76762;BME280;65705;51.032;13.790;2023-02-01T01:32:47;100165.44;;;5.91;65.82
76762;BME280;65705;51.032;13.790;2023-02-01T01:35:13;100182.22;;;5.98;65.77
76762;BME280;65705;51.032;13.790;2023-02-01T01:37:39;100180.44;;;5.98;65.66
76762;BME280;65705;51.032;13.790;2023-02-01T01:40:05;100190.16;;;5.96;66.03
76762;BME280;65705;51.032;13.790;2023-02-01T01:42:43;100187.00;;;5.93;65.99
76762;BME280;65705;51.032;13.790;2023-02-01T01:45:25;100177.97;;;5.97;65.50
76762;BME280;65705;51.032;13.790;2023-02-01T01:47:58;100161.88;;;5.92;65.35
76762;BME280;65705;51.032;13.790;2023-02-01T01:50:29;100177.97;;;5.97;65.26
76762;BME280;65705;51.032;13.790;2023-02-01T01:52:58;100175.72;;;5.92;65.50
76762;BME280;65705;51.032;13.790;2023-02-01T01:55:27;100176.50;;;6.04;64.85
76762;BME280;65705;51.032;13.790;2023-02-01T01:58:03;100188.13;;;6.00;65.22
76762;BME280;65705;51.032;13.790;2023-02-01T02:00:31;100164.94;;;5.97;65.04
76762;BME280;65705;51.032;13.790;2023-02-01T02:03:00;100169.88;;;6.00;64.80
76762;BME280;65705;51.032;13.790;2023-02-01T02:05:29;100170.03;;;5.98;65.09
76762;BME280;65705;51.032;13.790;2023-02-01T02:07:58;100173.00;;;5.94;65.06
76762;BME280;65705;51.032;13.790;2023-02-01T02:10:26;100170.16;;;5.97;64.97
76762;BME280;65705;51.032;13.790;2023-02-01T02:13:14;100181.94;;;6.01;64.41
76762;BME280;65705;51.032;13.790;2023-02-01T02:15:45;100175.88;;;5.91;64.86
76762;BME280;65705;51.032;13.790;2023-02-01T02:18:37;100159.66;;;5.87;64.58
76762;BME280;65705;51.032;13.790;2023-02-01T02:21:14;100158.47;;;5.91;64.34
76762;BME280;65705;51.032;13.790;2023-02-01T02:26:34;100158.00;;;5.86;64.39
76762;BME280;65705;51.032;13.790;2023-02-01T02:32:03;100139.09;;;5.84;63.75
76762;BME280;65705;51.032;13.790;2023-02-01T02:40:17;100151.31;;;5.93;63.52
76762;BME280;65705;51.032;13.790;2023-02-01T02:45:41;100133.69;;;5.97;63.30
76762;BME280;65705;51.032;13.790;2023-02-01T02:48:47;100129.91;;;5.90;63.95
76762;BME280;65705;51.032;13.790;2023-02-01T02:51:25;100127.31;;;5.90;63.77
76762;BME280;65705;51.032;13.790;2023-02-01T02:54:17;100135.84;;;5.92;63.80
76762;BME280;65705;51.032;13.790;2023-02-01T02:57:06;100131.59;;;5.91;63.74
76762;BME280;65705;51.032;13.790;2023-02-01T02:59:52;100133.75;;;5.86;64.09
76762;BME280;65705;51.032;13.790;2023-02-01T03:02:37;100131.38;;;5.83;63.99
76762;BME280;65705;51.032;13.790;2023-02-01T03:05:22;100144.19;;;5.86;63.63
76762;BME280;65705;51.032;13.790;2023-02-01T03:13:02;100149.56;;;5.94;63.74
76762;BME280;65705;51.032;13.790;2023-02-01T03:15:32;100151.31;;;5.93;63.44
76762;BME280;65705;51.032;13.790;2023-02-01T03:18:01;100144.31;;;5.84;63.75
76762;BME280;65705;51.032;13.790;2023-02-01T03:20:29;100158.97;;;5.85;63.25
76762;BME280;65705;51.032;13.790;2023-02-01T03:22:58;100160.59;;;5.86;63.83
76762;BME280;65705;51.032;13.790;2023-02-01T03:25:27;100158.47;;;5.91;63.69
76762;BME280;65705;51.032;13.790;2023-02-01T03:28:01;100155.41;;;5.86;63.68
76762;BME280;65705;51.032;13.790;2023-02-01T03:30:35;100158.84;;;5.87;63.70
76762;BME280;65705;51.032;13.790;2023-02-01T03:33:07;100157.38;;;5.94;63.28
76762;BME280;65705;51.032;13.790;2023-02-01T03:38:34;100137.38;;;5.94;63.19
76762;BME280;65705;51.032;13.790;2023-02-01T03:41:18;100137.63;;;5.91;63.60
76762;BME280;65705;51.032;13.790;2023-02-01T03:44:13;100130.38;;;5.95;63.20
76762;BME280;65705;51.032;13.790;2023-02-01T03:46:47;100147.91;;;5.93;63.23
76762;BME280;65705;51.032;13.790;2023-02-01T03:49:23;100130.50;;;5.93;62.88
76762;BME280;65705;51.032;13.790;2023-02-01T03:51:51;100136.53;;;5.94;63.23
76762;BME280;65705;51.032;13.790;2023-02-01T03:54:18;100131.88;;;5.97;63.15
76762;BME280;65705;51.032;13.790;2023-02-01T03:56:46;100126.44;;;6.00;62.84
76762;BME280;65705;51.032;13.790;2023-02-01T03:59:13;100130.56;;;6.03;62.56
76762;BME280;65705;51.032;13.790;2023-02-01T04:01:40;100123.06;;;6.09;62.61
76762;BME280;65705;51.032;13.790;2023-02-01T04:04:06;100123.84;;;6.00;62.80
76762;BME280;65705;51.032;13.790;2023-02-01T04:06:32;100117.94;;;6.08;62.23
76762;BME280;65705;51.032;13.790;2023-02-01T04:09:02;100114.53;;;6.07;62.65
76762;BME280;65705;51.032;13.790;2023-02-01T04:11:28;100106.41;;;6.01;62.49
76762;BME280;65705;51.032;13.790;2023-02-01T04:13:54;100109.84;;;6.01;62.68
76762;BME280;65705;51.032;13.790;2023-02-01T04:16:20;100101.91;;;6.03;62.53
76762;BME280;65705;51.032;13.790;2023-02-01T04:18:46;100099.84;;;6.06;62.51
76762;BME280;65705;51.032;13.790;2023-02-01T04:21:11;100096.69;;;6.03;62.33
76762;BME280;65705;51.032;13.790;2023-02-01T04:23:37;100117.38;;;6.04;62.50
76762;BME280;65705;51.032;13.790;2023-02-01T04:26:04;100099.03;;;6.06;62.39
76762;BME280;65705;51.032;13.790;2023-02-01T04:28:30;100094.06;;;6.03;62.56
76762;BME280;65705;51.032;13.790;2023-02-01T04:30:56;100089.13;;;6.00;62.28
76762;BME280;65705;51.032;13.790;2023-02-01T04:33:22;100093.50;;;5.99;62.31
76762;BME280;65705;51.032;13.790;2023-02-01T04:35:48;100084.06;;;5.98;62.17
76762;BME280;65705;51.032;13.790;2023-02-01T04:38:13;100093.94;;;6.04;61.93
76762;BME280;65705;51.032;13.790;2023-02-01T04:40:39;100081.88;;;6.03;62.05
76762;BME280;65705;51.032;13.790;2023-02-01T04:43:05;100082.25;;;5.99;62.13
76762;BME280;65705;51.032;13.790;2023-02-01T04:45:31;100075.78;;;5.93;62.23
76762;BME280;65705;51.032;13.790;2023-02-01T04:47:56;100078.16;;;5.96;62.18
76762;BME280;65705;51.032;13.790;2023-02-01T04:50:22;100062.25;;;5.99;62.16
76762;BME280;65705;51.032;13.790;2023-02-01T04:52:49;100067.88;;;5.95;62.10
76762;BME280;65705;51.032;13.790;2023-02-01T04:55:15;100071.19;;;5.97;62.10
76762;BME280;65705;51.032;13.790;2023-02-01T04:57:41;100061.59;;;6.07;61.57
76762;BME280;65705;51.032;13.790;2023-02-01T05:00:08;100062.16;;;6.10;61.38
76762;BME280;65705;51.032;13.790;2023-02-01T05:02:34;100055.84;;;6.03;61.73
76762;BME280;65705;51.032;13.790;2023-02-01T05:05:01;100050.34;;;5.97;62.14
76762;BME280;65705;51.032;13.790;2023-02-01T05:07:26;100051.28;;;5.96;61.99
76762;BME280;65705;51.032;13.790;2023-02-01T05:09:52;100039.22;;;5.95;61.67
76762;BME280;65705;51.032;13.790;2023-02-01T05:12:18;100040.84;;;5.96;61.69
76762;BME280;65705;51.032;13.790;2023-02-01T05:15:02;100040.03;;;5.95;61.93
76762;BME280;65705;51.032;13.790;2023-02-01T05:17:28;100050.91;;;6.00;61.34
76762;BME280;65705;51.032;13.790;2023-02-01T05:19:53;100034.16;;;6.03;61.44
76762;BME280;65705;51.032;13.790;2023-02-01T05:22:19;100024.44;;;6.05;61.12
76762;BME280;65705;51.032;13.790;2023-02-01T05:24:45;100023.75;;;6.03;60.78
76762;BME280;65705;51.032;13.790;2023-02-01T05:27:11;100019.88;;;5.97;61.01
76762;BME280;65705;51.032;13.790;2023-02-01T05:29:37;100014.28;;;6.02;60.83
76762;BME280;65705;51.032;13.790;2023-02-01T05:32:02;100016.91;;;6.02;60.79
76762;BME280;65705;51.032;13.790;2023-02-01T05:34:28;100001.97;;;6.04;60.56
76762;BME280;65705;51.032;13.790;2023-02-01T05:36:54;100015.66;;;6.06;60.59
76762;BME280;65705;51.032;13.790;2023-02-01T05:39:20;100006.06;;;6.06;60.79
76762;BME280;65705;51.032;13.790;2023-02-01T05:41:45;99999.38;;;6.04;60.63
76762;BME280;65705;51.032;13.790;2023-02-01T05:44:11;100018.25;;;6.06;60.52
76762;BME280;65705;51.032;13.790;2023-02-01T05:46:37;100009.09;;;6.11;60.71
76762;BME280;65705;51.032;13.790;2023-02-01T05:49:04;100019.66;;;6.10;60.79
76762;BME280;65705;51.032;13.790;2023-02-01T05:51:29;100018.16;;;6.07;60.97
76762;BME280;65705;51.032;13.790;2023-02-01T05:53:55;100020.75;;;6.17;60.82
76762;BME280;65705;51.032;13.790;2023-02-01T05:56:21;100013.09;;;6.15;60.53
76762;BME280;65705;51.032;13.790;2023-02-01T05:58:47;100008.56;;;6.17;60.41
76762;BME280;65705;51.032;13.790;2023-02-01T06:01:13;100008.56;;;6.17;60.30
76762;BME280;65705;51.032;13.790;2023-02-01T06:03:38;100015.00;;;6.13;60.82
76762;BME280;65705;51.032;13.790;2023-02-01T06:06:04;100007.03;;;6.15;60.85
76762;BME280;65705;51.032;13.790;2023-02-01T06:08:30;100008.84;;;6.14;60.82
76762;BME280;65705;51.032;13.790;2023-02-01T06:11:00;100011.59;;;6.13;60.75
76762;BME280;65705;51.032;13.790;2023-02-01T06:13:26;100006.25;;;6.14;60.62
76762;BME280;65705;51.032;13.790;2023-02-01T06:15:51;100009.94;;;6.12;61.25
76762;BME280;65705;51.032;13.790;2023-02-01T06:18:18;100014.19;;;6.13;60.64
76762;BME280;65705;51.032;13.790;2023-02-01T06:20:43;100018.56;;;6.12;60.74
76762;BME280;65705;51.032;13.790;2023-02-01T06:23:09;100019.78;;;6.08;61.12
76762;BME280;65705;51.032;13.790;2023-02-01T06:25:35;99990.19;;;6.09;61.19
76762;BME280;65705;51.032;13.790;2023-02-01T06:28:01;100004.56;;;6.13;60.92
76762;BME280;65705;51.032;13.790;2023-02-01T06:30:27;100008.97;;;6.13;61.15
76762;BME280;65705;51.032;13.790;2023-02-01T06:32:53;100008.84;;;6.14;60.84
76762;BME280;65705;51.032;13.790;2023-02-01T06:35:19;100009.66;;;6.15;60.83
76762;BME280;65705;51.032;13.790;2023-02-01T06:37:45;100016.38;;;6.17;61.25
76762;BME280;65705;51.032;13.790;2023-02-01T06:40:11;100008.84;;;6.14;61.03
76762;BME280;65705;51.032;13.790;2023-02-01T06:42:37;100017.09;;;6.19;61.04
76762;BME280;65705;51.032;13.790;2023-02-01T06:45:03;100022.94;;;6.12;61.70
76762;BME280;65705;51.032;13.790;2023-02-01T06:47:29;100016.81;;;6.13;61.63
76762;BME280;65705;51.032;13.790;2023-02-01T06:49:54;100009.66;;;6.05;62.18
76762;BME280;65705;51.032;13.790;2023-02-01T06:52:20;100003.59;;;6.05;62.86
76762;BME280;65705;51.032;13.790;2023-02-01T06:54:46;100001.13;;;6.03;62.97
76762;BME280;65705;51.032;13.790;2023-02-01T06:57:11;99994.94;;;6.04;62.76
76762;BME280;65705;51.032;13.790;2023-02-01T06:59:37;99995.78;;;6.05;63.24
76762;BME280;65705;51.032;13.790;2023-02-01T07:02:03;99995.50;;;6.08;62.69
76762;BME280;65705;51.032;13.790;2023-02-01T07:04:28;99994.72;;;6.07;63.02
76762;BME280;65705;51.032;13.790;2023-02-01T07:06:54;99992.09;;;6.07;63.07
76762;BME280;65705;51.032;13.790;2023-02-01T07:09:20;99985.78;;;6.10;63.04
76762;BME280;65705;51.032;13.790;2023-02-01T07:11:45;99994.25;;;6.02;63.50
76762;BME280;65705;51.032;13.790;2023-02-01T07:14:11;100000.31;;;6.03;63.72
76762;BME280;65705;51.032;13.790;2023-02-01T07:16:37;100000.16;;;6.04;64.43
76762;BME280;65705;51.032;13.790;2023-02-01T07:19:03;99993.19;;;6.05;65.02
76762;BME280;65705;51.032;13.790;2023-02-01T07:21:28;99982.50;;;6.08;65.26
76762;BME280;65705;51.032;13.790;2023-02-01T07:23:55;99991.66;;;6.02;65.53
76762;BME280;65705;51.032;13.790;2023-02-01T07:26:21;100001.56;;;6.08;65.91
76762;BME280;65705;51.032;13.790;2023-02-01T07:28:47;99993.28;;;5.94;67.49
76762;BME280;65705;51.032;13.790;2023-02-01T07:31:18;99993.94;;;5.86;68.38
76762;BME280;65705;51.032;13.790;2023-02-01T07:33:47;99988.41;;;5.80;68.44
76762;BME280;65705;51.032;13.790;2023-02-01T07:36:15;99994.97;;;5.74;69.59
76762;BME280;65705;51.032;13.790;2023-02-01T07:38:42;99986.16;;;5.66;69.92
76762;BME280;65705;51.032;13.790;2023-02-01T07:41:09;99981.16;;;5.53;70.08
76762;BME280;65705;51.032;13.790;2023-02-01T07:43:35;99974.72;;;5.48;70.51
76762;BME280;65705;51.032;13.790;2023-02-01T07:46:02;99981.31;;;5.52;70.44
76762;BME280;65705;51.032;13.790;2023-02-01T07:48:32;99972.53;;;5.53;69.89
76762;BME280;65705;51.032;13.790;2023-02-01T07:51:03;99974.91;;;5.56;70.07
76762;BME280;65705;51.032;13.790;2023-02-01T07:53:30;99972.66;;;5.51;70.17
76762;BME280;65705;51.032;13.790;2023-02-01T07:55:57;99963.56;;;5.66;69.38
76762;BME280;65705;51.032;13.790;2023-02-01T07:58:23;99965.72;;;5.61;69.16
76762;BME280;65705;51.032;13.790;2023-02-01T08:00:49;99950.22;;;5.60;69.58
76762;BME280;65705;51.032;13.790;2023-02-01T08:03:33;99954.63;;;5.59;68.55
76762;BME280;65705;51.032;13.790;2023-02-01T08:05:59;99954.78;;;5.67;68.87
76762;BME280;65705;51.032;13.790;2023-02-01T08:08:25;99949.75;;;5.75;67.57
76762;BME280;65705;51.032;13.790;2023-02-01T08:10:50;99961.44;;;5.81;67.51
76762;BME280;65705;51.032;13.790;2023-02-01T08:13:16;99951.94;;;5.80;67.65
76762;BME280;65705;51.032;13.790;2023-02-01T08:15:42;99961.44;;;5.81;68.23
76762;BME280;65705;51.032;13.790;2023-02-01T08:18:08;99957.84;;;5.82;67.85
76762;BME280;65705;51.032;13.790;2023-02-01T08:20:35;99949.22;;;5.81;67.70
76762;BME280;65705;51.032;13.790;2023-02-01T08:23:02;99949.34;;;5.80;67.31
76762;BME280;65705;51.032;13.790;2023-02-01T08:25:27;99954.69;;;5.78;67.51
76762;BME280;65705;51.032;13.790;2023-02-01T08:27:53;99952.47;;;5.74;67.92
76762;BME280;65705;51.032;13.790;2023-02-01T08:30:20;99952.22;;;5.77;67.89
76762;BME280;65705;51.032;13.790;2023-02-01T08:32:47;99950.88;;;5.82;68.73
76762;BME280;65705;51.032;13.790;2023-02-01T08:35:13;99932.19;;;5.68;68.26
76762;BME280;65705;51.032;13.790;2023-02-01T08:37:39;99925.31;;;5.67;69.40
76762;BME280;65705;51.032;13.790;2023-02-01T08:40:06;99922.59;;;5.68;67.55
76762;BME280;65705;51.032;13.790;2023-02-01T08:42:32;99918.75;;;5.72;67.31
76762;BME280;65705;51.032;13.790;2023-02-01T08:45:20;99921.22;;;5.74;66.84
76762;BME280;65705;51.032;13.790;2023-02-01T08:47:47;99909.31;;;5.71;66.37
76762;BME280;65705;51.032;13.790;2023-02-01T08:50:13;99909.44;;;5.79;65.91
76762;BME280;65705;51.032;13.790;2023-02-01T08:52:39;99896.34;;;5.81;65.69
76762;BME280;65705;51.032;13.790;2023-02-01T08:55:06;99895.28;;;5.93;64.98
76762;BME280;65705;51.032;13.790;2023-02-01T08:57:33;99908.44;;;6.01;63.93
76762;BME280;65705;51.032;13.790;2023-02-01T08:59:58;99894.91;;;6.16;62.92
76762;BME280;65705;51.032;13.790;2023-02-01T09:02:26;99911.50;;;6.25;63.08
76762;BME280;65705;51.032;13.790;2023-02-01T09:04:52;99907.94;;;6.35;62.55
76762;BME280;65705;51.032;13.790;2023-02-01T09:07:18;99904.25;;;6.38;62.36
76762;BME280;65705;51.032;13.790;2023-02-01T09:09:44;99903.97;;;6.41;62.06
76762;BME280;65705;51.032;13.790;2023-02-01T09:12:10;99898.59;;;6.43;62.63
76762;BME280;65705;51.032;13.790;2023-02-01T09:14:36;99902.44;;;6.48;62.28
76762;BME280;65705;51.032;13.790;2023-02-01T09:17:02;99908.50;;;6.49;62.32
76762;BME280;65705;51.032;13.790;2023-02-01T09:19:28;99903.97;;;6.51;62.47
76762;BME280;65705;51.032;13.790;2023-02-01T09:21:54;99916.44;;;6.57;62.51
76762;BME280;65705;51.032;13.790;2023-02-01T09:24:19;99908.59;;;6.57;62.67
76762;BME280;65705;51.032;13.790;2023-02-01T09:26:45;99910.53;;;6.55;63.08
76762;BME280;65705;51.032;13.790;2023-02-01T09:29:11;99913.41;;;6.52;63.51
76762;BME280;65705;51.032;13.790;2023-02-01T09:31:37;99910.94;;;6.50;63.90
76762;BME280;65705;51.032;13.790;2023-02-01T09:34:04;99922.88;;;6.53;64.01
76762;BME280;65705;51.032;13.790;2023-02-01T09:36:30;99912.19;;;6.46;64.80
76762;BME280;65705;51.032;13.790;2023-02-01T09:38:55;99913.84;;;6.47;65.73
76762;BME280;65705;51.032;13.790;2023-02-01T09:44:50;99912.59;;;6.42;66.33
76762;BME280;65705;51.032;13.790;2023-02-01T09:47:22;99924.94;;;6.30;66.62
76762;BME280;65705;51.032;13.790;2023-02-01T09:49:56;99923.94;;;6.12;67.97
76762;BME280;65705;51.032;13.790;2023-02-01T09:52:32;99917.06;;;5.92;70.25
76762;BME280;65705;51.032;13.790;2023-02-01T09:55:04;99942.97;;;5.84;71.87
76762;BME280;65705;51.032;13.790;2023-02-01T10:00:57;99944.22;;;5.69;72.07
76762;BME280;65705;51.032;13.790;2023-02-01T10:03:26;99960.25;;;5.64;73.44
76762;BME280;65705;51.032;13.790;2023-02-01T10:25:26;99982.16;;;4.90;74.97
76762;BME280;65705;51.032;13.790;2023-02-01T10:27:52;99991.59;;;4.91;75.83
76762;BME280;65705;51.032;13.790;2023-02-01T10:30:24;99983.31;;;4.97;75.22
76762;BME280;65705;51.032;13.790;2023-02-01T10:35:46;99983.69;;;4.93;75.31
76762;BME280;65705;51.032;13.790;2023-02-01T10:38:27;99974.09;;;4.93;75.04
76762;BME280;65705;51.032;13.790;2023-02-01T10:40:59;99986.88;;;4.96;75.77
76762;BME280;65705;51.032;13.790;2023-02-01T10:43:26;99990.34;;;5.06;75.08
76762;BME280;65705;51.032;13.790;2023-02-01T10:45:52;99982.06;;;5.12;74.99
76762;BME280;65705;51.032;13.790;2023-02-01T10:48:17;99983.38;;;5.07;75.30
76762;BME280;65705;51.032;13.790;2023-02-01T10:50:54;99978.69;;;5.21;75.16
76762;BME280;65705;51.032;13.790;2023-02-01T10:53:28;99980.63;;;5.29;74.65
76762;BME280;65705;51.032;13.790;2023-02-01T10:55:56;99977.53;;;5.35;74.30
76762;BME280;65705;51.032;13.790;2023-02-01T10:58:27;99976.34;;;5.49;74.16
76762;BME280;65705;51.032;13.790;2023-02-01T11:00:56;99972.94;;;5.48;72.69
76762;BME280;65705;51.032;13.790;2023-02-01T11:05:55;99993.41;;;5.62;72.74
76762;BME280;65705;51.032;13.790;2023-02-01T11:08:21;99982.59;;;5.67;73.18
76762;BME280;65705;51.032;13.790;2023-02-01T11:10:48;99982.34;;;5.70;71.90
76762;BME280;65705;51.032;13.790;2023-02-01T11:13:29;99979.66;;;5.81;71.19
76762;BME280;65705;51.032;13.790;2023-02-01T11:15:56;99990.53;;;5.86;70.78
76762;BME280;65705;51.032;13.790;2023-02-01T11:18:27;99969.25;;;5.81;70.74
76762;BME280;65705;51.032;13.790;2023-02-01T11:20:54;99996.28;;;5.89;70.04
76762;BME280;65705;51.032;13.790;2023-02-01T11:23:28;99999.69;;;5.90;70.15
76762;BME280;65705;51.032;13.790;2023-02-01T11:25:56;99997.66;;;5.93;70.66
76762;BME280;65705;51.032;13.790;2023-02-01T11:28:33;99980.00;;;5.97;69.88
76762;BME280;65705;51.032;13.790;2023-02-01T11:31:06;99987.69;;;6.08;69.98
76762;BME280;65705;51.032;13.790;2023-02-01T11:33:37;99976.47;;;6.07;69.40
76762;BME280;65705;51.032;13.790;2023-02-01T11:36:09;99974.28;;;6.12;69.02
76762;BME280;65705;51.032;13.790;2023-02-01T11:38:37;99975.66;;;6.16;69.02
76762;BME280;65705;51.032;13.790;2023-02-01T11:41:23;99965.53;;;6.23;67.79
76762;BME280;65705;51.032;13.790;2023-02-01T11:43:55;99997.91;;;6.30;66.98
76762;BME280;65705;51.032;13.790;2023-02-01T11:46:23;99973.38;;;6.32;67.05
76762;BME280;65705;51.032;13.790;2023-02-01T11:48:52;99956.91;;;6.42;67.21
76762;BME280;65705;51.032;13.790;2023-02-01T11:51:41;99959.66;;;6.59;67.08
76762;BME280;65705;51.032;13.790;2023-02-01T11:56:59;99946.06;;;6.65;66.40
76762;BME280;65705;51.032;13.790;2023-02-01T11:59:53;99953.78;;;6.67;67.37
76762;BME280;65705;51.032;13.790;2023-02-01T12:38:10;99919.31;;;6.63;64.88
76762;BME280;65705;51.032;13.790;2023-02-01T12:42:01;99916.81;;;6.62;64.88
76762;BME280;65705;51.032;13.790;2023-02-01T12:44:08;99928.09;;;6.62;64.88
76762;BME280;65705;51.032;13.790;2023-02-01T12:46:50;99918.34;;;6.74;64.91
76762;BME280;65705;51.032;13.790;2023-02-01T12:51:54;99924.91;;;6.78;64.80
76762;BME280;65705;51.032;13.790;2023-02-01T12:57:00;99915.16;;;6.80;64.56
76762;BME280;65705;51.032;13.790;2023-02-01T12:59:34;99909.16;;;6.79;64.62
76762;BME280;65705;51.032;13.790;2023-02-01T13:02:40;99915.84;;;6.91;64.36
76762;BME280;65705;51.032;13.790;2023-02-01T13:05:18;99894.69;;;6.94;64.86
76762;BME280;65705;51.032;13.790;2023-02-01T13:07:59;99916.25;;;6.96;64.34
76762;BME280;65705;51.032;13.790;2023-02-01T13:18:41;99926.53;;;7.07;64.21
76762;BME280;65705;51.032;13.790;2023-02-01T13:21:14;99902.50;;;7.04;63.85
76762;BME280;65705;51.032;13.790;2023-02-01T13:23:45;99908.13;;;7.09;64.25
76762;BME280;65705;51.032;13.790;2023-02-01T13:26:11;99903.44;;;7.12;63.41
76762;BME280;65705;51.032;13.790;2023-02-01T13:29:01;99898.75;;;7.16;63.68
76762;BME280;65705;51.032;13.790;2023-02-01T13:32:14;99903.66;;;7.19;63.00
76762;BME280;65705;51.032;13.790;2023-02-01T13:40:22;99891.44;;;7.19;62.70
76762;BME280;65705;51.032;13.790;2023-02-01T13:45:23;99890.78;;;7.17;62.20
76762;BME280;65705;51.032;13.790;2023-02-01T13:47:53;99883.34;;;7.22;62.25
76762;BME280;65705;51.032;13.790;2023-02-01T13:50:24;99870.28;;;7.22;61.68
76762;BME280;65705;51.032;13.790;2023-02-01T13:52:54;99883.44;;;7.30;61.43
76762;BME280;65705;51.032;13.790;2023-02-01T13:57:48;99871.84;;;7.42;61.04
76762;BME280;65705;51.032;13.790;2023-02-01T14:00:25;99872.53;;;7.44;60.45
76762;BME280;65705;51.032;13.790;2023-02-01T14:21:27;99862.88;;;7.27;60.68
76762;BME280;65705;51.032;13.790;2023-02-01T14:37:01;99865.19;;;7.30;59.31
76762;BME280;65705;51.032;13.790;2023-02-01T14:39:49;99864.50;;;7.28;58.87
76762;BME280;65705;51.032;13.790;2023-02-01T14:44:50;99853.97;;;7.20;59.38
76762;BME280;65705;51.032;13.790;2023-02-01T14:50:03;99850.28;;;7.13;59.51
76762;BME280;65705;51.032;13.790;2023-02-01T14:52:39;99857.00;;;7.16;59.42
76762;BME280;65705;51.032;13.790;2023-02-01T14:55:38;99855.63;;;7.12;59.75
76762;BME280;65705;51.032;13.790;2023-02-01T14:58:14;99869.81;;;7.09;59.89
76762;BME280;65705;51.032;13.790;2023-02-01T15:00:53;99874.47;;;7.06;59.66
76762;BME280;65705;51.032;13.790;2023-02-01T15:03:25;99866.38;;;7.09;59.65
76762;BME280;65705;51.032;13.790;2023-02-01T15:05:56;99859.50;;;7.08;59.49
76762;BME280;65705;51.032;13.790;2023-02-01T15:08:35;99860.31;;;7.08;59.55
76762;BME280;65705;51.032;13.790;2023-02-01T15:11:12;99862.13;;;7.08;59.62
76762;BME280;65705;51.032;13.790;2023-02-01T15:13:39;99852.63;;;7.07;59.23
76762;BME280;65705;51.032;13.790;2023-02-01T15:16:11;99847.94;;;7.10;59.40
76762;BME280;65705;51.032;13.790;2023-02-01T15:18:38;99850.41;;;7.12;59.22
76762;BME280;65705;51.032;13.790;2023-02-01T15:21:05;99860.31;;;7.08;59.41
76762;BME280;65705;51.032;13.790;2023-02-01T15:23:32;99852.22;;;7.11;59.63
76762;BME280;65705;51.032;13.790;2023-02-01T15:25:58;99851.00;;;7.06;60.13
76762;BME280;65705;51.032;13.790;2023-02-01T15:28:26;99837.41;;;7.02;61.73
76762;BME280;65705;51.032;13.790;2023-02-01T15:31:00;99840.28;;;6.99;63.10
76762;BME280;65705;51.032;13.790;2023-02-01T15:33:27;99834.53;;;6.96;62.98
76762;BME280;65705;51.032;13.790;2023-02-01T15:35:56;99820.88;;;6.84;63.77
76762;BME280;65705;51.032;13.790;2023-02-01T15:38:37;99816.50;;;6.75;63.32
76762;BME280;65705;51.032;13.790;2023-02-01T15:41:05;99792.19;;;6.75;62.77
76762;BME280;65705;51.032;13.790;2023-02-01T15:43:40;99801.13;;;6.72;62.76